Time;durP1;ratioP1;P1;durP2;ratioP2;P2;SDS_P1;SDS_P2;PMS_P1;PMS_P2;Temp;Humidity;BMP_temperature;BMP_pressure;BME280_temperature;BME280_humidity;BME280_pressure;Samples;Min_cycle;Max_cycle;Signal;HPM_P1;HPM_P2
2023/08/12 00:01:37;;;;;;;;;;;;;;;19.95;93.44;96806.25;5046542;28;19945;-75
2023/08/12 00:04:03;;;;;;;;;;;;;;;19.92;93.35;96796.94;5046904;28;19954;-73
2023/08/12 00:06:29;;;;;;;;;;;;;;;19.90;93.66;96796.41;5046471;28;20234;-75
2023/08/12 00:08:55;;;;;;;;;;;;;;;19.86;93.98;96801.50;5046557;28;19957;-75
2023/08/12 00:11:20;;;;;;;;;;;;;;;19.83;93.51;96794.03;5046737;28;20014;-75
2023/08/12 00:13:46;;;;;;;;;;;;;;;19.82;94.17;96792.44;5046478;28;19960;-75
2023/08/12 00:16:12;;;;;;;;;;;;;;;19.80;94.34;96793.75;5046531;28;19955;-76
2023/08/12 00:18:38;;;;;;;;;;;;;;;19.76;94.71;96785.53;5046725;28;19957;-75
2023/08/12 00:21:10;;;;;;;;;;;;;;;19.74;93.90;96793.00;5046364;28;19969;-75
2023/08/12 00:23:44;;;;;;;;;;;;;;;19.73;93.79;96794.03;5046549;28;19958;-72
2023/08/12 00:26:10;;;;;;;;;;;;;;;19.70;94.55;96791.06;5046555;28;19957;-73
2023/08/12 00:28:36;;;;;;;;;;;;;;;19.66;95.46;96786.31;5045996;28;19946;-73
2023/08/12 00:31:02;;;;;;;;;;;;;;;19.62;95.85;96782.59;5046376;28;19971;-73
2023/08/12 00:33:28;;;;;;;;;;;;;;;19.60;95.68;96786.59;5046450;28;19960;-73
2023/08/12 00:35:54;;;;;;;;;;;;;;;19.57;95.72;96779.94;5046030;28;20140;-73
2023/08/12 00:38:21;;;;;;;;;;;;;;;19.54;95.23;96780.44;5045976;28;19965;-73
2023/08/12 00:40:47;;;;;;;;;;;;;;;19.47;96.64;96786.03;5045933;28;19965;-73
2023/08/12 00:43:12;;;;;;;;;;;;;;;19.43;96.85;96784.97;5046071;28;19959;-71
2023/08/12 00:45:38;;;;;;;;;;;;;;;19.41;97.14;96775.69;5046023;28;19965;-73
2023/08/12 00:48:04;;;;;;;;;;;;;;;19.36;97.41;96773.81;5046163;28;20011;-74
2023/08/12 00:50:31;;;;;;;;;;;;;;;19.36;97.78;96775.66;5045530;28;19968;-73
2023/08/12 00:52:58;;;;;;;;;;;;;;;19.33;98.04;96771.69;5046114;28;20127;-73
2023/08/12 00:55:24;;;;;;;;;;;;;;;19.30;97.66;96769.56;5046425;28;19970;-73
2023/08/12 00:57:50;;;;;;;;;;;;;;;19.29;97.13;96764.50;5045348;28;19949;-74
2023/08/12 01:00:16;;;;;;;;;;;;;;;19.29;96.79;96773.28;5046138;28;19963;-73
2023/08/12 01:02:47;;;;;;;;;;;;;;;19.27;98.10;96778.84;5045864;28;19952;-76
2023/08/12 01:05:14;;;;;;;;;;;;;;;19.25;98.71;96773.00;5045860;28;20265;-75
2023/08/12 01:07:40;;;;;;;;;;;;;;;19.22;99.83;96768.22;5045464;28;19960;-75
2023/08/12 01:10:06;;;;;;;;;;;;;;;19.21;98.77;96771.13;5044702;28;19956;-75
2023/08/12 01:12:34;;;;;;;;;;;;;;;19.20;99.30;96762.38;5045100;28;19966;-76
2023/08/12 01:15:07;;;;;;;;;;;;;;;19.18;99.30;96758.38;5045496;28;19953;-75
2023/08/12 01:17:34;;;;;;;;;;;;;;;19.17;99.34;96749.63;5045604;28;19961;-71
2023/08/12 01:20:02;;;;;;;;;;;;;;;19.18;98.75;96745.88;5045601;28;19957;-78
2023/08/12 01:22:32;;;;;;;;;;;;;;;19.18;99.26;96748.53;5045458;28;19965;-75
2023/08/12 01:24:58;;;;;;;;;;;;;;;19.19;100.00;96741.34;5044789;28;19970;-75
2023/08/12 01:27:24;;;;;;;;;;;;;;;19.20;100.00;96745.63;5045034;28;19955;-75
2023/08/12 01:29:51;;;;;;;;;;;;;;;19.21;100.00;96742.72;5045085;28;19960;-75
2023/08/12 01:32:36;;;;;;;;;;;;;;;19.23;100.00;96748.56;5045303;28;20239;-75
2023/08/12 01:35:09;;;;;;;;;;;;;;;19.23;100.00;96740.59;5045186;28;19982;-75
2023/08/12 01:37:36;;;;;;;;;;;;;;;19.23;100.00;96739.75;5044976;28;19964;-71
2023/08/12 01:40:05;;;;;;;;;;;;;;;19.23;100.00;96737.94;5044566;28;19958;-73
2023/08/12 01:42:32;;;;;;;;;;;;;;;19.21;100.00;96734.75;5045102;28;19960;-73
2023/08/12 01:44:59;;;;;;;;;;;;;;;19.21;100.00;96742.72;5045039;28;19963;-73
2023/08/12 01:47:25;;;;;;;;;;;;;;;19.19;100.00;96736.03;5045017;28;19948;-73
2023/08/12 01:49:51;;;;;;;;;;;;;;;19.18;100.00;96737.91;5044751;28;19961;-73
2023/08/12 01:52:17;;;;;;;;;;;;;;;19.17;100.00;96735.50;5045003;28;20000;-73
2023/08/12 01:54:43;;;;;;;;;;;;;;;19.15;100.00;96730.47;5044534;28;19966;-73
2023/08/12 01:57:09;;;;;;;;;;;;;;;19.15;100.00;96729.66;5044566;28;20172;-75
2023/08/12 01:59:35;;;;;;;;;;;;;;;19.16;100.00;96728.59;5044564;28;20056;-71
2023/08/12 02:02:01;;;;;;;;;;;;;;;19.13;100.00;96727.28;5044784;28;19966;-70
2023/08/12 02:04:27;;;;;;;;;;;;;;;19.14;100.00;96728.06;5044591;28;19957;-70
2023/08/12 02:06:53;;;;;;;;;;;;;;;19.13;100.00;96732.59;5044575;28;19960;-70
2023/08/12 02:09:19;;;;;;;;;;;;;;;19.13;100.00;96734.44;5044635;28;19985;-70
2023/08/12 02:11:45;;;;;;;;;;;;;;;19.11;100.00;96726.75;5044543;28;20246;-71
2023/08/12 02:14:11;;;;;;;;;;;;;;;19.12;100.00;96730.19;5045162;28;20191;-74
2023/08/12 02:16:37;;;;;;;;;;;;;;;19.10;100.00;96717.16;5044614;28;19947;-73
2023/08/12 02:19:02;;;;;;;;;;;;;;;19.12;100.00;96720.38;5044751;28;20238;-73
2023/08/12 02:21:28;;;;;;;;;;;;;;;19.12;100.00;96712.38;5043889;28;19963;-73
2023/08/12 02:23:54;;;;;;;;;;;;;;;19.12;100.00;96714.25;5044305;28;20006;-74
2023/08/12 02:26:20;;;;;;;;;;;;;;;19.12;100.00;96719.56;5044219;28;19961;-73
2023/08/12 02:28:46;;;;;;;;;;;;;;;19.12;100.00;96714.25;5043888;28;20037;-73
2023/08/12 02:31:12;;;;;;;;;;;;;;;19.11;100.00;96708.16;5044105;28;20280;-70
2023/08/12 02:33:38;;;;;;;;;;;;;;;19.11;100.00;96713.47;5044263;28;19969;-75
2023/08/12 02:36:04;;;;;;;;;;;;;;;19.10;100.00;96705.75;5044297;28;20259;-73
2023/08/12 02:38:30;;;;;;;;;;;;;;;19.10;100.00;96711.84;5026564;28;19972;-72
2023/08/12 02:40:55;;;;;;;;;;;;;;;19.09;100.00;96707.63;5026669;28;19962;-73
2023/08/12 02:43:21;;;;;;;;;;;;;;;19.10;100.00;96714.50;5044366;28;19964;-72
2023/08/12 02:45:47;;;;;;;;;;;;;;;19.09;100.00;96710.28;5044196;28;20000;-73
2023/08/12 02:48:13;;;;;;;;;;;;;;;19.10;100.00;96711.06;5043698;28;19950;-73
2023/08/12 02:50:39;;;;;;;;;;;;;;;19.09;100.00;96710.28;5044034;28;20029;-75
2023/08/12 02:53:05;;;;;;;;;;;;;;;19.10;100.00;96705.75;5044261;28;19957;-73
2023/08/12 02:55:32;;;;;;;;;;;;;;;19.06;100.00;96694.84;5044210;28;19971;-73
2023/08/12 02:57:58;;;;;;;;;;;;;;;19.05;100.00;96695.91;5044320;28;19957;-73
2023/08/12 03:00:24;;;;;;;;;;;;;;;19.04;100.00;96694.31;5043945;28;19959;-73
2023/08/12 03:02:50;;;;;;;;;;;;;;;19.04;100.00;96707.59;5043930;28;19956;-73
2023/08/12 03:05:16;;;;;;;;;;;;;;;19.03;100.00;96698.03;5043951;28;19963;-73
2023/08/12 03:07:41;;;;;;;;;;;;;;;19.03;100.00;96700.69;5044088;28;19959;-73
2023/08/12 03:10:07;;;;;;;;;;;;;;;19.01;100.00;96703.63;5026198;28;19972;-73
2023/08/12 03:12:34;;;;;;;;;;;;;;;18.98;100.00;96708.66;5044049;28;19966;-74
2023/08/12 03:15:01;;;;;;;;;;;;;;;18.97;100.00;96707.06;5044007;28;19966;-74
2023/08/12 03:17:26;;;;;;;;;;;;;;;18.93;100.00;96696.16;5043901;28;20236;-73
2023/08/12 03:19:54;;;;;;;;;;;;;;;18.92;100.00;96696.41;5043983;28;19968;-73
2023/08/12 03:22:20;;;;;;;;;;;;;;;18.90;100.00;96694.06;5043983;28;19967;-74
2023/08/12 03:24:46;;;;;;;;;;;;;;;18.90;100.00;96690.56;5043921;28;19961;-73
2023/08/12 03:27:12;;;;;;;;;;;;;;;18.90;100.00;96685.25;5044127;28;19962;-71
2023/08/12 03:29:38;;;;;;;;;;;;;;;18.89;100.00;96689.00;5043714;28;19956;-74
2023/08/12 03:32:04;;;;;;;;;;;;;;;18.89;100.00;96687.13;5043602;28;19964;-75
2023/08/12 03:34:30;;;;;;;;;;;;;;;18.89;100.00;96681.03;5045421;28;19967;-75
2023/08/12 03:36:55;;;;;;;;;;;;;;;18.90;100.00;96685.25;5047479;28;19992;-74
2023/08/12 03:39:21;;;;;;;;;;;;;;;18.89;100.00;96689.78;5046954;28;19965;-75
2023/08/12 03:41:47;;;;;;;;;;;;;;;18.90;100.00;96685.25;5047250;28;19963;-75
2023/08/12 03:44:13;;;;;;;;;;;;;;;18.90;100.00;96687.91;5047329;28;19981;-76
2023/08/12 03:46:39;;;;;;;;;;;;;;;18.89;100.00;96686.34;5046854;28;19939;-75
2023/08/12 03:49:05;;;;;;;;;;;;;;;18.87;100.00;96683.94;5047483;28;19957;-75
2023/08/12 03:51:30;;;;;;;;;;;;;;;18.88;100.00;96679.41;5046940;28;19965;-75
2023/08/12 03:53:57;;;;;;;;;;;;;;;18.88;100.00;96682.06;5047345;28;19968;-74
2023/08/12 03:56:22;;;;;;;;;;;;;;;18.87;100.00;96683.94;5047224;28;19960;-74
2023/08/12 03:58:48;;;;;;;;;;;;;;;18.87;100.00;96683.94;5046752;28;20235;-75
2023/08/12 04:01:14;;;;;;;;;;;;;;;18.87;100.00;96675.97;5046802;28;20177;-77
2023/08/12 04:03:40;;;;;;;;;;;;;;;18.88;100.00;96687.38;5046820;28;19988;-73
2023/08/12 04:06:06;;;;;;;;;;;;;;;18.87;100.00;96683.94;5047077;28;20203;-75
2023/08/12 04:08:32;;;;;;;;;;;;;;;18.89;100.00;96681.03;5029009;28;19953;-74
2023/08/12 04:10:58;;;;;;;;;;;;;;;18.86;100.00;96680.50;5046759;28;19959;-75
2023/08/12 04:13:24;;;;;;;;;;;;;;;18.86;100.00;96679.69;5046813;28;19988;-74
2023/08/12 04:15:50;;;;;;;;;;;;;;;18.86;100.00;96685.81;5046732;28;19965;-75
2023/08/12 04:18:16;;;;;;;;;;;;;;;18.85;100.00;96676.22;5046320;28;20115;-74
2023/08/12 04:20:42;;;;;;;;;;;;;;;18.86;100.00;96685.81;5046776;28;19965;-74
2023/08/12 04:23:08;;;;;;;;;;;;;;;18.88;100.00;96692.69;5046299;28;19961;-71
2023/08/12 04:25:34;;;;;;;;;;;;;;;18.85;100.00;96689.50;5046280;28;19964;-72
2023/08/12 04:28:00;;;;;;;;;;;;;;;18.85;100.00;96694.81;5046096;28;19963;-72
2023/08/12 04:30:26;;;;;;;;;;;;;;;18.85;100.00;96694.81;5046251;28;19967;-73
2023/08/12 04:32:52;;;;;;;;;;;;;;;18.85;100.00;96681.53;5046152;28;20154;-73
2023/08/12 04:35:18;;;;;;;;;;;;;;;18.84;100.00;96687.13;5046293;28;19960;-72
2023/08/12 04:37:43;;;;;;;;;;;;;;;18.83;100.00;96683.66;5046222;28;20042;-71
2023/08/12 04:40:10;;;;;;;;;;;;;;;18.82;100.00;96682.06;5046223;28;19959;-74
2023/08/12 04:42:36;;;;;;;;;;;;;;;18.84;100.00;96687.13;5046375;28;19969;-73
2023/08/12 04:45:03;;;;;;;;;;;;;;;18.84;100.00;96687.94;5045981;28;19959;-74
2023/08/12 04:47:29;;;;;;;;;;;;;;;18.85;100.00;96684.19;5046203;28;19949;-74
2023/08/12 04:49:54;;;;;;;;;;;;;;;18.86;100.00;96690.31;5046351;28;19958;-74
2023/08/12 04:52:20;;;;;;;;;;;;;;;18.86;100.00;96693.78;5046233;28;19969;-72
2023/08/12 04:54:46;;;;;;;;;;;;;;;18.87;100.00;96691.91;5045613;28;19960;-77
2023/08/12 04:57:12;;;;;;;;;;;;;;;18.89;100.00;96687.13;5045448;28;19957;-75
2023/08/12 04:59:38;;;;;;;;;;;;;;;18.88;100.00;96684.72;5046094;28;19988;-72
2023/08/12 05:02:04;;;;;;;;;;;;;;;18.88;100.00;96684.72;5045645;28;20002;-70
2023/08/12 05:04:29;;;;;;;;;;;;;;;18.88;100.00;96690.03;5045793;28;19964;-70
2023/08/12 05:06:55;;;;;;;;;;;;;;;18.89;100.00;96687.13;5045877;28;19956;-70
2023/08/12 05:09:21;;;;;;;;;;;;;;;18.89;100.00;96683.69;5045675;28;20258;-71
2023/08/12 05:11:47;;;;;;;;;;;;;;;18.89;100.00;96694.31;5045625;28;20008;-72
2023/08/12 05:14:13;;;;;;;;;;;;;;;18.85;100.00;96681.53;5045632;28;20251;-71
2023/08/12 05:16:39;;;;;;;;;;;;;;;18.85;100.00;96686.84;5045502;28;19943;-72
2023/08/12 05:19:04;;;;;;;;;;;;;;;18.89;100.00;96675.72;5045550;28;19970;-71
2023/08/12 05:21:30;;;;;;;;;;;;;;;18.92;100.00;96677.81;5045507;28;19999;-71
2023/08/12 05:23:56;;;;;;;;;;;;;;;18.94;100.00;96675.69;5045260;28;20023;-72
2023/08/12 05:26:22;;;;;;;;;;;;;;;18.97;100.00;96688.47;5045605;28;20017;-70
2023/08/12 05:28:48;;;;;;;;;;;;;;;18.98;100.00;96682.06;5045066;28;20015;-72
2023/08/12 05:31:14;;;;;;;;;;;;;;;18.97;100.00;96683.94;5045062;28;20236;-72
2023/08/12 05:33:39;;;;;;;;;;;;;;;18.97;100.00;96667.22;5045141;28;19959;-72
2023/08/12 05:36:05;;;;;;;;;;;;;;;18.96;100.00;96662.94;5044975;28;19962;-75
2023/08/12 05:38:31;;;;;;;;;;;;;;;18.97;100.00;96668.00;5045058;28;19965;-72
2023/08/12 05:40:57;;;;;;;;;;;;;;;18.97;100.00;96675.97;5045258;28;19956;-73
2023/08/12 05:43:23;;;;;;;;;;;;;;;18.97;100.00;96673.31;5045243;28;20121;-72
2023/08/12 05:45:49;;;;;;;;;;;;;;;18.99;100.00;96679.16;5044977;28;20131;-74
2023/08/12 05:48:15;;;;;;;;;;;;;;;19.00;100.00;96690.59;5045266;28;19953;-73
2023/08/12 05:50:41;;;;;;;;;;;;;;;19.04;100.00;96689.00;5044616;28;20007;-73
2023/08/12 05:53:06;;;;;;;;;;;;;;;19.09;100.00;96682.88;5044884;28;19965;-72
2023/08/12 05:55:34;;;;;;;;;;;;;;;19.16;100.00;96694.84;5044533;28;20280;-75
2023/08/12 05:58:00;;;;;;;;;;;;;;;19.23;100.00;96679.44;5044051;28;19973;-73
2023/08/12 06:00:26;;;;;;;;;;;;;;;19.31;100.00;96674.63;5044632;28;19957;-73
2023/08/12 06:02:52;;;;;;;;;;;;;;;19.38;100.00;96681.28;5044523;28;19957;-73
2023/08/12 06:05:18;;;;;;;;;;;;;;;19.45;100.00;96683.66;5044630;28;19966;-73
2023/08/12 06:07:44;;;;;;;;;;;;;;;19.52;100.00;96678.84;5044346;28;19966;-73
2023/08/12 06:10:10;;;;;;;;;;;;;;;19.60;100.00;96680.94;5044647;28;20142;-73
2023/08/12 06:12:36;;;;;;;;;;;;;;;19.67;100.00;96676.16;5044682;28;20216;-73
2023/08/12 06:15:02;;;;;;;;;;;;;;;19.73;100.00;96686.81;5044653;28;19997;-71
2023/08/12 06:17:28;;;;;;;;;;;;;;;19.72;100.00;96688.69;5044655;28;19951;-70
2023/08/12 06:19:53;;;;;;;;;;;;;;;19.76;100.00;96678.28;5027275;28;20038;-71
2023/08/12 06:22:19;;;;;;;;;;;;;;;19.82;100.00;96690.50;5027011;28;19959;-71
2023/08/12 06:24:45;;;;;;;;;;;;;;;19.90;100.00;96679.28;5044124;28;19977;-71
2023/08/12 06:27:11;;;;;;;;;;;;;;;19.99;100.00;96676.84;5043975;28;20245;-71
2023/08/12 06:29:37;;;;;;;;;;;;;;;20.06;100.00;96675.50;5044226;28;19976;-70
2023/08/12 06:32:03;;;;;;;;;;;;;;;20.14;100.00;96671.50;5044256;28;20013;-73
2023/08/12 06:34:28;;;;;;;;;;;;;;;20.18;100.00;96656.56;5044584;28;20256;-70
2023/08/12 06:36:54;;;;;;;;;;;;;;;20.23;100.00;96661.06;5044264;28;19953;-71
2023/08/12 06:39:20;;;;;;;;;;;;;;;20.25;100.00;96656.25;5044311;28;19958;-71
2023/08/12 06:41:46;;;;;;;;;;;;;;;20.30;100.00;96666.88;5044490;28;20020;-71
2023/08/12 06:44:12;;;;;;;;;;;;;;;20.37;100.00;96667.38;5044330;28;19965;-70
2023/08/12 06:46:38;;;;;;;;;;;;;;;20.50;100.00;96670.50;5044311;28;20003;-73
2023/08/12 06:49:03;;;;;;;;;;;;;;;20.68;100.00;96661.88;5044567;28;19971;-78
2023/08/12 06:51:29;;;;;;;;;;;;;;;20.93;100.00;96662.75;5044093;28;19989;-75
2023/08/12 06:53:55;;;;;;;;;;;;;;;21.33;100.00;96663.47;5044351;28;19973;-73
2023/08/12 06:56:21;;;;;;;;;;;;;;;21.50;98.49;96647.84;5043738;28;19960;-73
2023/08/12 06:58:47;;;;;;;;;;;;;;;21.73;97.93;96654.28;5043942;28;20002;-73
2023/08/12 07:01:13;;;;;;;;;;;;;;;21.92;96.40;96646.31;5044435;28;19973;-73
2023/08/12 07:03:39;;;;;;;;;;;;;;;22.05;96.18;96644.84;5026397;28;19968;-73
2023/08/12 07:06:04;;;;;;;;;;;;;;;22.39;92.97;96635.88;5044227;28;20004;-73
2023/08/12 07:08:32;;;;;;;;;;;;;;;22.59;90.73;96624.88;5044139;28;19960;-76
2023/08/12 07:10:57;;;;;;;;;;;;;;;22.85;91.24;96629.84;5048066;28;19956;-75
2023/08/12 07:13:23;;;;;;;;;;;;;;;23.14;89.33;96618.13;5047874;28;19978;-75
2023/08/12 07:15:49;;;;;;;;;;;;;;;23.36;86.16;96602.22;5047884;28;20228;-75
2023/08/12 07:18:15;;;;;;;;;;;;;;;23.37;86.30;96608.34;5048023;28;19945;-75
2023/08/12 07:20:41;;;;;;;;;;;;;;;23.37;88.06;96614.53;5047423;28;19962;-73
2023/08/12 07:23:07;;;;;;;;;;;;;;;23.53;87.33;96616.91;5047814;28;20256;-74
2023/08/12 07:25:33;;;;;;;;;;;;;;;23.44;85.62;96609.56;5047412;28;19952;-71
2023/08/12 07:27:58;;;;;;;;;;;;;;;23.20;86.29;96607.03;5047564;28;19963;-78
2023/08/12 07:30:24;;;;;;;;;;;;;;;23.03;88.63;96620.19;5047424;28;19959;-70
2023/08/12 07:32:50;;;;;;;;;;;;;;;22.94;89.26;96627.28;5047289;28;19983;-70
2023/08/12 07:35:16;;;;;;;;;;;;;;;23.00;89.43;96623.44;5047362;28;19957;-69
2023/08/12 07:37:42;;;;;;;;;;;;;;;23.18;88.68;96619.94;5047412;28;19961;-70
2023/08/12 07:40:08;;;;;;;;;;;;;;;23.17;89.58;96638.97;5047403;28;19954;-70
2023/08/12 07:42:34;;;;;;;;;;;;;;;23.36;89.41;96628.97;5047400;28;19955;-69
2023/08/12 07:45:00;;;;;;;;;;;;;;;23.54;88.90;96627.31;5047350;28;19957;-72
2023/08/12 07:47:26;;;;;;;;;;;;;;;23.71;88.12;96618.69;5046908;28;19943;-72
2023/08/12 07:49:52;;;;;;;;;;;;;;;23.95;87.24;96612.34;5047113;28;19958;-72
2023/08/12 07:52:17;;;;;;;;;;;;;;;24.02;84.43;96597.47;5047374;28;19990;-73
2023/08/12 07:54:43;;;;;;;;;;;;;;;23.92;84.83;96597.69;5047268;28;19983;-73
2023/08/12 07:57:09;;;;;;;;;;;;;;;23.81;88.64;96628.41;5046837;28;20133;-72
2023/08/12 07:59:35;;;;;;;;;;;;;;;23.77;86.88;96619.41;5047231;28;19957;-72
2023/08/12 08:02:01;;;;;;;;;;;;;;;23.75;87.83;96618.88;5047178;28;19953;-73
2023/08/12 08:04:27;;;;;;;;;;;;;;;23.79;89.13;96627.91;5046845;28;19976;-71
2023/08/12 08:06:53;;;;;;;;;;;;;;;23.90;86.12;96606.00;5046540;28;19961;-70
2023/08/12 08:09:18;;;;;;;;;;;;;;;24.10;86.63;96603.97;5046783;28;19965;-71
2023/08/12 08:11:44;;;;;;;;;;;;;;;24.35;85.82;96605.31;5046813;28;19995;-72
2023/08/12 08:14:10;;;;;;;;;;;;;;;24.64;86.33;96599.56;5046880;28;19955;-71
2023/08/12 08:16:36;;;;;;;;;;;;;;;24.97;85.16;96596.63;5046782;28;19973;-72
2023/08/12 08:19:02;;;;;;;;;;;;;;;25.24;82.40;96579.59;5047036;28;20107;-72
2023/08/12 08:21:28;;;;;;;;;;;;;;;25.40;78.02;96550.41;5045780;28;19965;-72
2023/08/12 08:23:54;;;;;;;;;;;;;;;25.36;81.38;96579.00;5046273;28;20184;-72
2023/08/12 08:26:20;;;;;;;;;;;;;;;25.40;79.18;96563.06;5046049;28;20314;-79
2023/08/12 08:28:45;;;;;;;;;;;;;;;25.47;77.34;96561.50;5046235;28;19951;-79
2023/08/12 08:31:11;;;;;;;;;;;;;;;25.58;77.79;96563.91;5046419;28;19959;-78
2023/08/12 08:33:37;;;;;;;;;;;;;;;25.61;78.09;96565.97;5046155;28;20257;-79
2023/08/12 08:36:03;;;;;;;;;;;;;;;25.42;77.22;96561.63;5045973;28;20286;-78
2023/08/12 08:38:29;;;;;;;;;;;;;;;25.38;78.41;96567.94;5045773;28;20160;-79
2023/08/12 08:40:56;;;;;;;;;;;;;;;25.56;77.21;96566.91;5046052;28;19965;-73
2023/08/12 08:43:23;;;;;;;;;;;;;;;25.80;78.17;96566.47;5046053;28;20124;-71
2023/08/12 08:45:52;;;;;;;;;;;;;;;26.15;76.74;96563.09;5045919;28;20113;-72
2023/08/12 08:48:19;;;;;;;;;;;;;;;26.42;75.16;96541.25;5046011;28;20106;-71
2023/08/12 08:50:45;;;;;;;;;;;;;;;26.44;75.00;96547.09;5046072;28;19959;-71
2023/08/12 08:53:12;;;;;;;;;;;;;;;26.58;74.04;96546.16;5045879;28;19966;-72
2023/08/12 08:55:40;;;;;;;;;;;;;;;26.47;74.93;96561.81;5045681;28;20072;-72
2023/08/12 08:58:06;;;;;;;;;;;;;;;26.61;75.79;96562.47;5046044;28;19959;-73
2023/08/12 09:00:32;;;;;;;;;;;;;;;26.86;73.92;96562.75;5046238;28;19957;-75
2023/08/12 09:02:58;;;;;;;;;;;;;;;26.97;72.80;96549.72;5046010;28;19955;-71
2023/08/12 09:05:25;;;;;;;;;;;;;;;26.95;71.95;96544.66;5045746;28;20152;-71
2023/08/12 09:07:51;;;;;;;;;;;;;;;26.92;69.71;96534.53;5045762;28;19965;-71
2023/08/12 09:10:17;;;;;;;;;;;;;;;26.86;71.69;96551.97;5045855;28;19961;-70
2023/08/12 09:12:44;;;;;;;;;;;;;;;26.88;67.31;96529.00;5045700;28;19968;-71
2023/08/12 09:15:10;;;;;;;;;;;;;;;26.92;68.92;96547.97;5045657;28;19963;-70
2023/08/12 09:17:36;;;;;;;;;;;;;;;26.92;66.80;96537.22;5045783;28;19952;-80
2023/08/12 09:20:03;;;;;;;;;;;;;;;27.00;66.91;96546.38;5045247;28;19967;-73
2023/08/12 09:22:29;;;;;;;;;;;;;;;27.11;67.90;96571.84;5045591;28;19960;-73
2023/08/12 09:24:58;;;;;;;;;;;;;;;27.23;69.79;96585.44;5045103;28;19957;-73
2023/08/12 09:27:24;;;;;;;;;;;;;;;27.36;65.77;96556.72;5045166;28;19954;-74
2023/08/12 09:29:56;;;;;;;;;;;;;;;27.37;67.50;96569.06;5044256;28;20325;-73
2023/08/12 09:32:22;;;;;;;;;;;;;;;27.33;67.50;96579.69;5044632;28;20145;-73
2023/08/12 09:34:52;;;;;;;;;;;;;;;27.27;66.08;96583.69;5045257;28;19957;-74
2023/08/12 09:37:19;;;;;;;;;;;;;;;27.14;63.45;96571.19;5045274;28;19972;-73
2023/08/12 09:39:44;;;;;;;;;;;;;;;26.99;65.08;96585.97;5045288;28;19958;-73
2023/08/12 09:42:11;;;;;;;;;;;;;;;26.87;66.59;96580.44;5045212;28;19964;-74
2023/08/12 09:44:37;;;;;;;;;;;;;;;26.72;66.42;96592.50;5045193;28;19969;-74
2023/08/12 09:47:03;;;;;;;;;;;;;;;26.63;69.49;96615.94;5044774;28;19985;-74
2023/08/12 09:49:29;;;;;;;;;;;;;;;26.62;70.45;96607.06;5045380;28;19958;-73
2023/08/12 09:51:55;;;;;;;;;;;;;;;26.63;69.46;96600.59;5044711;28;19959;-73
2023/08/12 09:54:21;;;;;;;;;;;;;;;26.62;67.31;96592.84;5044778;28;20236;-77
2023/08/12 09:56:48;;;;;;;;;;;;;;;26.56;65.63;96584.09;5044419;28;19961;-73
2023/08/12 09:59:20;;;;;;;;;;;;;;;26.51;68.05;96595.81;5044688;28;20147;-73
2023/08/12 10:01:47;;;;;;;;;;;;;;;26.49;69.53;96592.66;5045025;28;19967;-82
2023/08/12 10:04:14;;;;;;;;;;;;;;;26.51;69.51;96589.66;5044837;28;19982;-78
2023/08/12 10:06:41;;;;;;;;;;;;;;;26.50;69.04;96578.13;5044962;28;19967;-78
2023/08/12 10:09:11;;;;;;;;;;;;;;;26.48;69.42;96574.94;5044828;28;19957;-75
2023/08/12 10:11:37;;;;;;;;;;;;;;;26.48;69.73;96579.50;5045067;28;19943;-70
2023/08/12 10:14:03;;;;;;;;;;;;;;;26.57;70.12;96591.09;5044677;28;19963;-78
2023/08/12 10:16:30;;;;;;;;;;;;;;;26.69;69.80;96579.69;5044116;28;19961;-70
2023/08/12 10:18:57;;;;;;;;;;;;;;;26.74;69.50;96579.53;5044118;28;20150;-71
2023/08/12 10:21:25;;;;;;;;;;;;;;;26.77;69.27;96578.88;5044322;28;19957;-69
2023/08/12 10:23:53;;;;;;;;;;;;;;;26.79;69.29;96584.72;5044261;28;20250;-71
2023/08/12 10:26:19;;;;;;;;;;;;;;;26.77;68.07;96584.25;5044558;28;19961;-70
2023/08/12 10:28:45;;;;;;;;;;;;;;;26.82;69.79;96588.72;5044300;28;19955;-70
2023/08/12 10:31:11;;;;;;;;;;;;;;;27.04;70.53;96587.69;5044592;28;20005;-79
2023/08/12 10:33:37;;;;;;;;;;;;;;;27.30;67.71;96580.34;5044381;28;19964;-78
2023/08/12 10:36:04;;;;;;;;;;;;;;;27.48;67.87;96574.88;5044321;28;19957;-80
2023/08/12 10:38:30;;;;;;;;;;;;;;;27.62;67.19;96571.97;5043807;28;19956;-78
2023/08/12 10:41:14;;;;;;;;;;;;;;;27.76;67.56;96575.22;5044642;28;19987;-79
2023/08/12 10:43:59;;;;;;;;;;;;;;;27.99;65.69;96564.97;5046455;28;19954;-78
2023/08/12 10:46:30;;;;;;;;;;;;;;;28.06;65.80;96561.75;5048553;28;19954;-78
2023/08/12 10:49:16;;;;;;;;;;;;;;;28.08;67.26;96573.78;5048449;28;19962;-70
2023/08/12 10:51:54;;;;;;;;;;;;;;;28.21;65.84;96569.22;5047863;28;19963;-79
2023/08/12 10:54:21;;;;;;;;;;;;;;;28.17;65.69;96570.22;5048118;28;19957;-80
2023/08/12 10:57:02;;;;;;;;;;;;;;;28.11;64.47;96565.00;5047687;28;19956;-79
2023/08/12 10:59:47;;;;;;;;;;;;;;;28.05;65.05;96563.63;5048399;28;19956;-79
2023/08/12 11:02:16;;;;;;;;;;;;;;;28.06;64.83;96567.13;5048326;28;19960;-79
2023/08/12 11:04:42;;;;;;;;;;;;;;;28.05;65.45;96573.63;5048164;28;19961;-78
2023/08/12 11:07:15;;;;;;;;;;;;;;;28.06;64.17;96567.91;5048222;28;19960;-72
2023/08/12 11:09:41;;;;;;;;;;;;;;;28.11;64.35;96567.72;5048102;28;19960;-74
2023/08/12 11:12:08;;;;;;;;;;;;;;;28.09;66.17;96566.47;5047988;28;19955;-74
2023/08/12 11:14:46;;;;;;;;;;;;;;;28.05;65.12;96568.25;5047455;28;20002;-74
2023/08/12 11:17:15;;;;;;;;;;;;;;;28.13;67.09;96570.09;5047420;28;19982;-74
2023/08/12 11:19:42;;;;;;;;;;;;;;;28.14;65.60;96561.69;5047915;28;19964;-74
2023/08/12 11:22:08;;;;;;;;;;;;;;;28.11;66.72;96565.00;5047562;28;19960;-74
2023/08/12 11:24:35;;;;;;;;;;;;;;;28.07;66.66;96564.09;5047835;28;19966;-74
2023/08/12 11:27:02;;;;;;;;;;;;;;;28.08;65.09;96548.72;5047601;28;19959;-71
2023/08/12 11:29:28;;;;;;;;;;;;;;;28.13;66.50;96556.59;5047555;28;19961;-72
2023/08/12 11:31:54;;;;;;;;;;;;;;;28.18;66.74;96559.13;5047695;28;19972;-73
2023/08/12 11:34:20;;;;;;;;;;;;;;;28.24;65.39;96546.22;5047602;28;19967;-72
2023/08/12 11:36:46;;;;;;;;;;;;;;;28.20;64.45;96546.09;5047547;28;20140;-72
2023/08/12 11:39:12;;;;;;;;;;;;;;;28.20;64.41;96539.88;5046963;28;19967;-73
2023/08/12 11:41:37;;;;;;;;;;;;;;;28.28;63.85;96539.03;5047758;28;19943;-72
2023/08/12 11:44:04;;;;;;;;;;;;;;;28.26;61.57;96523.19;5047446;28;20007;-74
2023/08/12 11:46:32;;;;;;;;;;;;;;;28.20;61.30;96524.53;5047066;28;20120;-72
2023/08/12 11:48:58;;;;;;;;;;;;;;;28.10;61.66;96525.69;5046986;28;19969;-69
2023/08/12 11:51:24;;;;;;;;;;;;;;;28.04;61.31;96529.72;5047427;28;20142;-70
2023/08/12 11:53:50;;;;;;;;;;;;;;;27.99;60.89;96535.31;5046856;28;19968;-69
2023/08/12 11:56:16;;;;;;;;;;;;;;;27.94;59.57;96548.97;5046298;28;19962;-69
2023/08/12 11:58:43;;;;;;;;;;;;;;;27.88;62.30;96563.75;5046590;28;19956;-70
2023/08/12 12:01:09;;;;;;;;;;;;;;;27.80;63.44;96567.25;5046994;28;20004;-70
2023/08/12 12:03:35;;;;;;;;;;;;;;;27.68;62.22;96557.22;5047176;28;19963;-70
2023/08/12 12:06:00;;;;;;;;;;;;;;;27.60;63.69;96566.91;5047128;28;20003;-70
2023/08/12 12:08:30;;;;;;;;;;;;;;;27.50;64.09;96580.75;5046929;28;19960;-70
2023/08/12 12:10:56;;;;;;;;;;;;;;;27.30;65.32;96585.75;5046942;28;19965;-70
2023/08/12 12:13:25;;;;;;;;;;;;;;;27.00;66.58;96608.28;5047080;28;19995;-69
2023/08/12 12:15:52;;;;;;;;;;;;;;;26.73;68.22;96618.28;5046460;28;19985;-69
2023/08/12 12:18:18;;;;;;;;;;;;;;;26.47;69.88;96639.78;5046242;28;19960;-70
2023/08/12 12:20:54;;;;;;;;;;;;;;;26.20;72.42;96651.63;5046483;28;20009;-72
2023/08/12 12:23:20;;;;;;;;;;;;;;;25.96;74.88;96649.38;5046656;28;19958;-67
2023/08/12 12:25:46;;;;;;;;;;;;;;;25.86;77.03;96659.25;5046535;28;19961;-67
2023/08/12 12:28:12;;;;;;;;;;;;;;;25.80;80.62;96673.16;5046547;28;19957;-67
2023/08/12 12:30:38;;;;;;;;;;;;;;;25.75;80.32;96662.56;5046662;28;19958;-67
2023/08/12 12:33:04;;;;;;;;;;;;;;;25.67;78.72;96669.47;5046458;28;19967;-66
2023/08/12 12:35:30;;;;;;;;;;;;;;;25.62;79.96;96686.53;5046511;28;19953;-67
2023/08/12 12:37:56;;;;;;;;;;;;;;;25.61;81.33;96689.50;5046076;28;19964;-67
2023/08/12 12:40:22;;;;;;;;;;;;;;;25.56;80.29;96689.66;5046407;28;19996;-67